Michael S — WDE9794 — position and weather

sailwx.info

Track history (hours):
 
Tides and Currents Weather Stations Pressure Air Temp Water Temp Dewpoint Dewpoint Depression Visibility Wind Speed Wind Dir Waves Ship Positions

Michael S

Owner: Bisso Tow Boats Inc., New Orleans, LA. More information available from US FCC via Universal Licensing System and Coast Guard Vessel Documentation Center.

Last reported at 2014-Nov-29 03:28 UTC. Time now 2014-Nov-29 09:53 UTC.
Position N 29°57' W 090°01'.

Length 33 m; draft 3 m.

Type: Towing. MMSI: 367413700.

Date/timePositionNaut miles runAvg speedWind from/ knotsBaromVisibWave heightAir tempDewpointWater temp
2014-Nov-29 03:28N 29°57' W 090°01'0 0.0
2014-Nov-29 00:25N 29°57' W 090°01'0 0.0
2014-Nov-28 21:25N 29°57' W 090°01'0 0.0
2014-Nov-28 20:28N 29°57' W 090°01'0 0.0
2014-Nov-28 09:29N 29°57' W 090°01'3 3.0
2014-Nov-28 08:21N 29°55' W 090°04'0 0.0
2014-Nov-28 05:18N 29°55' W 090°04'0 0.0
2014-Nov-28 04:03N 29°55' W 090°04'0 0.0
2014-Nov-28 01:24N 29°55' W 090°04'5 1.3
2014-Nov-27 21:24N 29°55' W 089°59'3 0.5
2014-Nov-27 15:33N 29°57' W 090°01'5 1.3
2014-Nov-27 11:30N 29°55' W 090°07'6 0.4
2014-Nov-26 21:24N 29°56' W 089°60'2 0.7
2014-Nov-26 19:22N 29°57' W 090°01'0 0.0
2014-Nov-26 14:33N 29°57' W 090°01'0 0.0
2014-Nov-26 13:33N 29°57' W 090°01'0 0.0
2014-Nov-26 12:24N 29°57' W 090°01'0 0.0
2014-Nov-26 09:33N 29°57' W 090°01'1 0.2
2014-Nov-26 04:11N 29°58' W 090°02'1 0.5
2014-Nov-26 01:32N 29°57' W 090°01'0 0.3
2014-Nov-26 00:13N 29°57' W 090°01'2 0.2
2014-Nov-25 15:13N 29°57' W 090°03'2 0.5
2014-Nov-25 11:14N 29°57' W 090°01'5 1.3
2014-Nov-25 07:32N 29°55' W 089°56'1 0.2
2014-Nov-25 02:16N 29°55' W 089°57'6 1.5
2014-Nov-24 22:18N 29°55' W 090°04'0 0.0
2014-Nov-24 21:24N 29°55' W 090°04'3 0.7
2014-Nov-24 17:16N 29°57' W 090°01'2 2.7
2014-Nov-24 16:26N 29°56' W 089°59'2 0.7
2014-Nov-24 13:14N 29°57' W 090°01'6 5.3
2014-Nov-24 12:06N 29°52' W 089°57'  
Track history (hours):
 
Tides and Currents Weather Stations Pressure Air Temp Water Temp Dewpoint Dewpoint Depression Visibility Wind Speed Wind Dir Waves Ship Positions

Michael S

Owner: Bisso Tow Boats Inc., New Orleans, LA. More information available from US FCC via Universal Licensing System and Coast Guard Vessel Documentation Center.

Last reported at 2014-Nov-29 03:28 UTC. Time now 2014-Nov-29 09:53 UTC.
Position N 29°57' W 090°01'.

Length 33 m; draft 3 m.

Type: Towing. MMSI: 367413700.

Date/timePositionNaut miles runAvg speedWind from/ knotsBaromVisibWave heightAir tempDewpointWater temp
2014-Nov-29 03:28N 29°57' W 090°01'0 0.0
2014-Nov-29 00:25N 29°57' W 090°01'0 0.0
2014-Nov-28 21:25N 29°57' W 090°01'0 0.0
2014-Nov-28 20:28N 29°57' W 090°01'0 0.0
2014-Nov-28 09:29N 29°57' W 090°01'3 3.0
2014-Nov-28 08:21N 29°55' W 090°04'0 0.0
2014-Nov-28 05:18N 29°55' W 090°04'0 0.0
2014-Nov-28 04:03N 29°55' W 090°04'0 0.0
2014-Nov-28 01:24N 29°55' W 090°04'5 1.3
2014-Nov-27 21:24N 29°55' W 089°59'3 0.5
2014-Nov-27 15:33N 29°57' W 090°01'5 1.3
2014-Nov-27 11:30N 29°55' W 090°07'6 0.4
2014-Nov-26 21:24N 29°56' W 089°60'2 0.7
2014-Nov-26 19:22N 29°57' W 090°01'0 0.0
2014-Nov-26 14:33N 29°57' W 090°01'0 0.0
2014-Nov-26 13:33N 29°57' W 090°01'0 0.0
2014-Nov-26 12:24N 29°57' W 090°01'0 0.0
2014-Nov-26 09:33N 29°57' W 090°01'1 0.2
2014-Nov-26 04:11N 29°58' W 090°02'1 0.5
2014-Nov-26 01:32N 29°57' W 090°01'0 0.3
2014-Nov-26 00:13N 29°57' W 090°01'2 0.2
2014-Nov-25 15:13N 29°57' W 090°03'2 0.5
2014-Nov-25 11:14N 29°57' W 090°01'5 1.3
2014-Nov-25 07:32N 29°55' W 089°56'1 0.2
2014-Nov-25 02:16N 29°55' W 089°57'6 1.5
2014-Nov-24 22:18N 29°55' W 090°04'0 0.0
2014-Nov-24 21:24N 29°55' W 090°04'3 0.7
2014-Nov-24 17:16N 29°57' W 090°01'2 2.7
2014-Nov-24 16:26N 29°56' W 089°59'2 0.7
2014-Nov-24 13:14N 29°57' W 090°01'6 5.3
2014-Nov-24 12:06N 29°52' W 089°57'  

Dump ship's entire track history